sensor_id;sensor_type;location;lat;lon;timestamp;P1;durP1;ratioP1;P2;durP2;ratioP2
6614;SDS011;3343;42.896;23.912;2023-04-10T00:01:07;12.80;;;7.30;;
6614;SDS011;3343;42.896;23.912;2023-04-10T00:03:34;11.70;;;6.70;;
6614;SDS011;3343;42.896;23.912;2023-04-10T00:06:03;12.97;;;7.27;;
6614;SDS011;3343;42.896;23.912;2023-04-10T00:08:31;12.77;;;7.50;;
6614;SDS011;3343;42.896;23.912;2023-04-10T00:10:58;13.47;;;7.33;;
6614;SDS011;3343;42.896;23.912;2023-04-10T00:13:25;11.80;;;6.80;;
6614;SDS011;3343;42.896;23.912;2023-04-10T00:15:52;10.53;;;6.33;;
6614;SDS011;3343;42.896;23.912;2023-04-10T00:18:19;11.20;;;6.83;;
6614;SDS011;3343;42.896;23.912;2023-04-10T00:20:46;13.87;;;6.60;;
6614;SDS011;3343;42.896;23.912;2023-04-10T00:23:14;11.47;;;7.30;;
6614;SDS011;3343;42.896;23.912;2023-04-10T00:25:40;9.47;;;5.70;;
6614;SDS011;3343;42.896;23.912;2023-04-10T00:28:07;11.47;;;6.33;;
6614;SDS011;3343;42.896;23.912;2023-04-10T00:30:34;9.73;;;6.10;;
6614;SDS011;3343;42.896;23.912;2023-04-10T00:33:01;8.03;;;5.43;;
6614;SDS011;3343;42.896;23.912;2023-04-10T00:35:28;9.50;;;6.23;;
6614;SDS011;3343;42.896;23.912;2023-04-10T00:37:56;9.60;;;6.23;;
6614;SDS011;3343;42.896;23.912;2023-04-10T00:40:24;10.03;;;6.00;;
6614;SDS011;3343;42.896;23.912;2023-04-10T00:42:51;8.87;;;5.77;;
6614;SDS011;3343;42.896;23.912;2023-04-10T00:45:18;11.13;;;6.47;;
6614;SDS011;3343;42.896;23.912;2023-04-10T00:47:45;11.27;;;6.80;;
6614;SDS011;3343;42.896;23.912;2023-04-10T00:50:12;10.00;;;6.80;;
6614;SDS011;3343;42.896;23.912;2023-04-10T00:52:39;11.90;;;6.73;;
6614;SDS011;3343;42.896;23.912;2023-04-10T00:55:07;12.17;;;6.63;;
6614;SDS011;3343;42.896;23.912;2023-04-10T00:57:37;11.23;;;6.30;;
6614;SDS011;3343;42.896;23.912;2023-04-10T01:00:05;11.77;;;6.73;;
6614;SDS011;3343;42.896;23.912;2023-04-10T01:02:33;7.27;;;5.47;;
6614;SDS011;3343;42.896;23.912;2023-04-10T01:04:59;9.80;;;6.13;;
6614;SDS011;3343;42.896;23.912;2023-04-10T01:07:29;10.90;;;6.43;;
6614;SDS011;3343;42.896;23.912;2023-04-10T01:10:10;8.37;;;5.63;;
6614;SDS011;3343;42.896;23.912;2023-04-10T01:12:49;12.77;;;6.00;;
6614;SDS011;3343;42.896;23.912;2023-04-10T01:15:25;9.30;;;5.83;;
6614;SDS011;3343;42.896;23.912;2023-04-10T01:17:57;9.53;;;6.17;;
6614;SDS011;3343;42.896;23.912;2023-04-10T01:20:30;10.13;;;5.97;;
6614;SDS011;3343;42.896;23.912;2023-04-10T01:23:14;9.30;;;6.00;;
6614;SDS011;3343;42.896;23.912;2023-04-10T01:25:55;8.03;;;5.20;;
6614;SDS011;3343;42.896;23.912;2023-04-10T01:31:18;8.47;;;5.63;;
6614;SDS011;3343;42.896;23.912;2023-04-10T01:34:04;9.77;;;5.60;;
6614;SDS011;3343;42.896;23.912;2023-04-10T01:36:34;9.23;;;5.50;;
6614;SDS011;3343;42.896;23.912;2023-04-10T01:39:03;10.23;;;5.73;;
6614;SDS011;3343;42.896;23.912;2023-04-10T01:41:31;9.50;;;5.73;;
6614;SDS011;3343;42.896;23.912;2023-04-10T01:43:59;8.27;;;5.60;;
6614;SDS011;3343;42.896;23.912;2023-04-10T01:46:30;7.40;;;4.77;;
6614;SDS011;3343;42.896;23.912;2023-04-10T01:48:59;8.00;;;5.40;;
6614;SDS011;3343;42.896;23.912;2023-04-10T01:51:29;7.83;;;4.67;;
6614;SDS011;3343;42.896;23.912;2023-04-10T01:53:56;7.77;;;5.03;;
6614;SDS011;3343;42.896;23.912;2023-04-10T01:56:24;10.77;;;5.07;;
6614;SDS011;3343;42.896;23.912;2023-04-10T01:58:52;8.63;;;5.33;;
6614;SDS011;3343;42.896;23.912;2023-04-10T02:01:19;8.47;;;4.70;;
6614;SDS011;3343;42.896;23.912;2023-04-10T02:03:48;7.30;;;5.43;;
6614;SDS011;3343;42.896;23.912;2023-04-10T02:06:17;7.23;;;4.87;;
6614;SDS011;3343;42.896;23.912;2023-04-10T02:08:52;7.60;;;4.77;;
6614;SDS011;3343;42.896;23.912;2023-04-10T02:11:24;7.40;;;4.23;;
6614;SDS011;3343;42.896;23.912;2023-04-10T02:13:58;8.73;;;5.07;;
6614;SDS011;3343;42.896;23.912;2023-04-10T02:16:28;8.17;;;5.20;;
6614;SDS011;3343;42.896;23.912;2023-04-10T02:18:58;8.60;;;5.17;;
6614;SDS011;3343;42.896;23.912;2023-04-10T02:21:26;9.57;;;5.87;;
6614;SDS011;3343;42.896;23.912;2023-04-10T02:23:55;10.23;;;6.27;;
6614;SDS011;3343;42.896;23.912;2023-04-10T02:26:22;10.10;;;5.87;;
6614;SDS011;3343;42.896;23.912;2023-04-10T02:28:49;10.47;;;5.63;;
6614;SDS011;3343;42.896;23.912;2023-04-10T02:31:16;8.97;;;5.17;;
6614;SDS011;3343;42.896;23.912;2023-04-10T02:33:43;8.97;;;5.80;;
6614;SDS011;3343;42.896;23.912;2023-04-10T02:36:11;11.87;;;6.47;;
6614;SDS011;3343;42.896;23.912;2023-04-10T02:38:38;10.63;;;6.47;;
6614;SDS011;3343;42.896;23.912;2023-04-10T02:41:05;9.73;;;6.30;;
6614;SDS011;3343;42.896;23.912;2023-04-10T02:43:32;8.97;;;5.97;;
6614;SDS011;3343;42.896;23.912;2023-04-10T02:45:59;9.40;;;5.97;;
6614;SDS011;3343;42.896;23.912;2023-04-10T02:48:26;12.23;;;7.03;;
6614;SDS011;3343;42.896;23.912;2023-04-10T02:50:54;10.30;;;6.67;;
6614;SDS011;3343;42.896;23.912;2023-04-10T02:53:23;11.50;;;6.93;;
6614;SDS011;3343;42.896;23.912;2023-04-10T02:55:51;11.53;;;5.93;;
6614;SDS011;3343;42.896;23.912;2023-04-10T02:58:18;10.47;;;6.47;;
6614;SDS011;3343;42.896;23.912;2023-04-10T03:00:48;10.03;;;5.90;;
6614;SDS011;3343;42.896;23.912;2023-04-10T03:03:17;12.30;;;6.63;;
6614;SDS011;3343;42.896;23.912;2023-04-10T03:05:44;12.13;;;7.13;;
6614;SDS011;3343;42.896;23.912;2023-04-10T03:08:13;13.27;;;7.23;;
6614;SDS011;3343;42.896;23.912;2023-04-10T03:10:43;12.33;;;7.53;;
6614;SDS011;3343;42.896;23.912;2023-04-10T03:13:10;13.33;;;7.70;;
6614;SDS011;3343;42.896;23.912;2023-04-10T03:15:37;11.57;;;6.97;;
6614;SDS011;3343;42.896;23.912;2023-04-10T03:18:04;14.20;;;8.03;;
6614;SDS011;3343;42.896;23.912;2023-04-10T03:20:31;10.73;;;7.77;;
6614;SDS011;3343;42.896;23.912;2023-04-10T03:22:58;12.80;;;7.03;;
6614;SDS011;3343;42.896;23.912;2023-04-10T03:25:25;12.07;;;6.77;;
6614;SDS011;3343;42.896;23.912;2023-04-10T03:27:54;17.87;;;9.03;;
6614;SDS011;3343;42.896;23.912;2023-04-10T03:30:20;13.70;;;8.30;;
6614;SDS011;3343;42.896;23.912;2023-04-10T03:32:47;12.33;;;7.27;;
6614;SDS011;3343;42.896;23.912;2023-04-10T03:35:14;15.33;;;9.50;;
6614;SDS011;3343;42.896;23.912;2023-04-10T03:37:41;14.80;;;8.83;;
6614;SDS011;3343;42.896;23.912;2023-04-10T03:40:08;12.13;;;7.40;;
6614;SDS011;3343;42.896;23.912;2023-04-10T03:42:36;23.90;;;12.90;;
6614;SDS011;3343;42.896;23.912;2023-04-10T03:45:05;23.03;;;12.57;;
6614;SDS011;3343;42.896;23.912;2023-04-10T03:47:32;20.70;;;12.13;;
6614;SDS011;3343;42.896;23.912;2023-04-10T03:49:59;15.30;;;9.93;;
6614;SDS011;3343;42.896;23.912;2023-04-10T03:52:26;17.13;;;9.23;;
6614;SDS011;3343;42.896;23.912;2023-04-10T03:54:53;17.43;;;9.60;;
6614;SDS011;3343;42.896;23.912;2023-04-10T03:57:20;17.13;;;9.37;;
6614;SDS011;3343;42.896;23.912;2023-04-10T03:59:47;41.10;;;16.57;;
6614;SDS011;3343;42.896;23.912;2023-04-10T04:02:15;64.97;;;24.57;;
6614;SDS011;3343;42.896;23.912;2023-04-10T04:04:41;23.90;;;12.40;;
6614;SDS011;3343;42.896;23.912;2023-04-10T04:07:08;21.60;;;10.87;;
6614;SDS011;3343;42.896;23.912;2023-04-10T04:09:36;22.67;;;10.20;;
6614;SDS011;3343;42.896;23.912;2023-04-10T04:12:03;17.13;;;8.60;;
6614;SDS011;3343;42.896;23.912;2023-04-10T04:14:30;15.87;;;9.30;;
6614;SDS011;3343;42.896;23.912;2023-04-10T04:16:57;18.13;;;9.83;;
6614;SDS011;3343;42.896;23.912;2023-04-10T04:19:25;13.13;;;7.57;;
6614;SDS011;3343;42.896;23.912;2023-04-10T04:21:52;15.10;;;7.47;;
6614;SDS011;3343;42.896;23.912;2023-04-10T04:24:19;9.43;;;6.50;;
6614;SDS011;3343;42.896;23.912;2023-04-10T04:26:46;14.97;;;7.53;;
6614;SDS011;3343;42.896;23.912;2023-04-10T04:29:13;11.20;;;6.97;;
6614;SDS011;3343;42.896;23.912;2023-04-10T04:31:39;13.77;;;8.00;;
6614;SDS011;3343;42.896;23.912;2023-04-10T04:34:06;13.73;;;7.33;;
6614;SDS011;3343;42.896;23.912;2023-04-10T04:36:34;15.73;;;8.27;;
6614;SDS011;3343;42.896;23.912;2023-04-10T04:39:01;17.23;;;9.33;;
6614;SDS011;3343;42.896;23.912;2023-04-10T04:41:28;17.93;;;9.87;;
6614;SDS011;3343;42.896;23.912;2023-04-10T04:43:56;15.30;;;7.90;;
6614;SDS011;3343;42.896;23.912;2023-04-10T04:46:23;19.60;;;10.93;;
6614;SDS011;3343;42.896;23.912;2023-04-10T04:48:50;16.87;;;9.13;;
6614;SDS011;3343;42.896;23.912;2023-04-10T04:51:16;19.13;;;11.07;;
6614;SDS011;3343;42.896;23.912;2023-04-10T04:53:44;20.53;;;10.90;;
6614;SDS011;3343;42.896;23.912;2023-04-10T04:56:11;17.57;;;10.33;;
6614;SDS011;3343;42.896;23.912;2023-04-10T04:58:38;23.57;;;10.47;;
6614;SDS011;3343;42.896;23.912;2023-04-10T05:01:05;18.53;;;9.17;;
6614;SDS011;3343;42.896;23.912;2023-04-10T05:03:33;17.40;;;8.37;;
6614;SDS011;3343;42.896;23.912;2023-04-10T05:06:00;17.00;;;10.10;;
6614;SDS011;3343;42.896;23.912;2023-04-10T05:08:27;18.57;;;9.97;;
6614;SDS011;3343;42.896;23.912;2023-04-10T05:10:55;15.90;;;8.63;;
6614;SDS011;3343;42.896;23.912;2023-04-10T05:13:22;12.20;;;7.07;;
6614;SDS011;3343;42.896;23.912;2023-04-10T05:15:50;17.27;;;9.17;;
6614;SDS011;3343;42.896;23.912;2023-04-10T05:18:17;14.37;;;7.70;;
6614;SDS011;3343;42.896;23.912;2023-04-10T05:20:47;15.97;;;8.57;;
6614;SDS011;3343;42.896;23.912;2023-04-10T05:23:14;13.83;;;7.37;;
6614;SDS011;3343;42.896;23.912;2023-04-10T05:25:41;11.23;;;6.90;;
6614;SDS011;3343;42.896;23.912;2023-04-10T05:28:09;10.97;;;6.50;;
6614;SDS011;3343;42.896;23.912;2023-04-10T05:30:36;11.57;;;6.40;;
6614;SDS011;3343;42.896;23.912;2023-04-10T05:33:03;14.10;;;7.70;;
6614;SDS011;3343;42.896;23.912;2023-04-10T05:35:30;17.53;;;8.13;;
6614;SDS011;3343;42.896;23.912;2023-04-10T05:37:57;13.43;;;7.43;;
6614;SDS011;3343;42.896;23.912;2023-04-10T05:40:24;12.30;;;6.30;;
6614;SDS011;3343;42.896;23.912;2023-04-10T05:42:51;12.17;;;6.90;;
6614;SDS011;3343;42.896;23.912;2023-04-10T05:45:19;13.33;;;6.47;;
6614;SDS011;3343;42.896;23.912;2023-04-10T05:47:46;23.90;;;11.93;;
6614;SDS011;3343;42.896;23.912;2023-04-10T05:50:13;22.00;;;10.17;;
6614;SDS011;3343;42.896;23.912;2023-04-10T05:52:41;17.70;;;9.50;;
6614;SDS011;3343;42.896;23.912;2023-04-10T05:55:08;15.93;;;9.07;;
6614;SDS011;3343;42.896;23.912;2023-04-10T05:57:35;15.03;;;8.80;;
6614;SDS011;3343;42.896;23.912;2023-04-10T06:00:02;17.90;;;8.90;;
6614;SDS011;3343;42.896;23.912;2023-04-10T06:02:31;13.63;;;7.63;;
6614;SDS011;3343;42.896;23.912;2023-04-10T06:04:57;15.90;;;8.23;;
6614;SDS011;3343;42.896;23.912;2023-04-10T06:07:24;14.80;;;7.83;;
6614;SDS011;3343;42.896;23.912;2023-04-10T06:09:51;14.47;;;8.10;;
6614;SDS011;3343;42.896;23.912;2023-04-10T06:12:18;11.83;;;7.47;;
6614;SDS011;3343;42.896;23.912;2023-04-10T06:14:46;12.97;;;8.00;;
6614;SDS011;3343;42.896;23.912;2023-04-10T06:17:13;14.30;;;7.93;;
6614;SDS011;3343;42.896;23.912;2023-04-10T06:19:41;16.43;;;9.00;;
6614;SDS011;3343;42.896;23.912;2023-04-10T06:22:08;15.10;;;7.83;;
6614;SDS011;3343;42.896;23.912;2023-04-10T06:24:34;13.70;;;7.80;;
6614;SDS011;3343;42.896;23.912;2023-04-10T06:27:01;13.33;;;7.63;;
6614;SDS011;3343;42.896;23.912;2023-04-10T06:29:28;14.53;;;8.20;;
6614;SDS011;3343;42.896;23.912;2023-04-10T06:31:55;20.50;;;9.80;;
6614;SDS011;3343;42.896;23.912;2023-04-10T06:34:22;19.13;;;10.33;;
6614;SDS011;3343;42.896;23.912;2023-04-10T06:36:50;19.57;;;10.53;;
6614;SDS011;3343;42.896;23.912;2023-04-10T06:39:17;35.43;;;19.17;;
6614;SDS011;3343;42.896;23.912;2023-04-10T06:41:44;27.10;;;13.73;;
6614;SDS011;3343;42.896;23.912;2023-04-10T06:44:10;20.23;;;11.03;;
6614;SDS011;3343;42.896;23.912;2023-04-10T06:46:37;18.13;;;10.67;;
6614;SDS011;3343;42.896;23.912;2023-04-10T06:49:04;18.57;;;11.87;;
6614;SDS011;3343;42.896;23.912;2023-04-10T06:51:31;17.13;;;9.33;;
6614;SDS011;3343;42.896;23.912;2023-04-10T06:53:59;13.53;;;7.60;;
6614;SDS011;3343;42.896;23.912;2023-04-10T06:56:26;13.60;;;8.40;;
6614;SDS011;3343;42.896;23.912;2023-04-10T06:58:53;16.30;;;9.67;;
6614;SDS011;3343;42.896;23.912;2023-04-10T07:01:20;15.47;;;8.13;;
6614;SDS011;3343;42.896;23.912;2023-04-10T07:03:47;13.20;;;7.63;;
6614;SDS011;3343;42.896;23.912;2023-04-10T07:06:14;13.17;;;7.83;;
6614;SDS011;3343;42.896;23.912;2023-04-10T07:08:42;15.13;;;7.83;;
6614;SDS011;3343;42.896;23.912;2023-04-10T07:11:10;13.37;;;7.63;;
6614;SDS011;3343;42.896;23.912;2023-04-10T07:13:37;13.83;;;7.33;;
6614;SDS011;3343;42.896;23.912;2023-04-10T07:16:04;14.80;;;8.10;;
6614;SDS011;3343;42.896;23.912;2023-04-10T07:18:32;12.10;;;7.43;;
6614;SDS011;3343;42.896;23.912;2023-04-10T07:21:00;12.37;;;6.90;;
6614;SDS011;3343;42.896;23.912;2023-04-10T07:23:26;11.47;;;7.33;;
6614;SDS011;3343;42.896;23.912;2023-04-10T07:25:53;13.60;;;7.57;;
6614;SDS011;3343;42.896;23.912;2023-04-10T07:28:23;15.37;;;8.17;;
6614;SDS011;3343;42.896;23.912;2023-04-10T07:30:50;13.47;;;7.73;;
6614;SDS011;3343;42.896;23.912;2023-04-10T07:33:16;11.13;;;6.57;;
6614;SDS011;3343;42.896;23.912;2023-04-10T07:35:43;12.47;;;7.00;;
6614;SDS011;3343;42.896;23.912;2023-04-10T07:38:10;14.07;;;7.17;;
6614;SDS011;3343;42.896;23.912;2023-04-10T07:40:38;11.77;;;7.23;;
6614;SDS011;3343;42.896;23.912;2023-04-10T07:43:05;17.07;;;8.37;;
6614;SDS011;3343;42.896;23.912;2023-04-10T07:45:33;12.70;;;7.17;;
6614;SDS011;3343;42.896;23.912;2023-04-10T07:48:00;12.70;;;6.63;;
6614;SDS011;3343;42.896;23.912;2023-04-10T07:50:27;12.77;;;7.30;;
6614;SDS011;3343;42.896;23.912;2023-04-10T07:52:54;11.67;;;7.07;;
6614;SDS011;3343;42.896;23.912;2023-04-10T07:55:21;13.97;;;7.60;;
6614;SDS011;3343;42.896;23.912;2023-04-10T07:57:48;11.57;;;6.33;;
6614;SDS011;3343;42.896;23.912;2023-04-10T08:00:16;13.13;;;7.07;;
6614;SDS011;3343;42.896;23.912;2023-04-10T08:02:45;15.83;;;8.20;;
6614;SDS011;3343;42.896;23.912;2023-04-10T08:05:11;11.80;;;6.57;;
6614;SDS011;3343;42.896;23.912;2023-04-10T08:07:38;11.70;;;6.73;;
6614;SDS011;3343;42.896;23.912;2023-04-10T08:10:05;11.40;;;6.73;;
6614;SDS011;3343;42.896;23.912;2023-04-10T08:12:32;12.87;;;7.70;;
6614;SDS011;3343;42.896;23.912;2023-04-10T08:14:59;11.10;;;7.40;;
6614;SDS011;3343;42.896;23.912;2023-04-10T08:17:27;11.97;;;7.10;;
6614;SDS011;3343;42.896;23.912;2023-04-10T08:19:55;13.00;;;6.47;;
6614;SDS011;3343;42.896;23.912;2023-04-10T08:22:22;13.80;;;7.10;;
6614;SDS011;3343;42.896;23.912;2023-04-10T08:24:49;10.27;;;6.37;;
6614;SDS011;3343;42.896;23.912;2023-04-10T08:27:16;10.90;;;7.33;;
6614;SDS011;3343;42.896;23.912;2023-04-10T08:29:43;11.20;;;6.73;;
6614;SDS011;3343;42.896;23.912;2023-04-10T08:32:10;9.90;;;6.23;;
6614;SDS011;3343;42.896;23.912;2023-04-10T08:34:36;10.57;;;7.07;;
6614;SDS011;3343;42.896;23.912;2023-04-10T08:37:05;11.37;;;6.30;;
6614;SDS011;3343;42.896;23.912;2023-04-10T08:39:34;10.53;;;6.10;;
6614;SDS011;3343;42.896;23.912;2023-04-10T08:42:01;10.20;;;6.30;;
6614;SDS011;3343;42.896;23.912;2023-04-10T08:44:28;10.83;;;6.70;;
6614;SDS011;3343;42.896;23.912;2023-04-10T08:46:57;12.03;;;6.80;;
6614;SDS011;3343;42.896;23.912;2023-04-10T08:49:28;10.87;;;7.07;;
6614;SDS011;3343;42.896;23.912;2023-04-10T08:51:59;12.10;;;6.90;;
6614;SDS011;3343;42.896;23.912;2023-04-10T08:54:31;10.50;;;6.70;;
6614;SDS011;3343;42.896;23.912;2023-04-10T08:57:00;10.27;;;6.70;;
6614;SDS011;3343;42.896;23.912;2023-04-10T08:59:27;14.37;;;7.53;;
6614;SDS011;3343;42.896;23.912;2023-04-10T09:01:55;10.10;;;6.10;;
6614;SDS011;3343;42.896;23.912;2023-04-10T09:04:22;9.23;;;6.20;;
6614;SDS011;3343;42.896;23.912;2023-04-10T09:06:50;11.43;;;6.67;;
6614;SDS011;3343;42.896;23.912;2023-04-10T09:09:17;7.83;;;5.67;;
6614;SDS011;3343;42.896;23.912;2023-04-10T09:11:59;10.00;;;6.00;;
6614;SDS011;3343;42.896;23.912;2023-04-10T09:14:28;10.87;;;6.27;;
6614;SDS011;3343;42.896;23.912;2023-04-10T09:17:12;11.53;;;6.37;;
6614;SDS011;3343;42.896;23.912;2023-04-10T09:19:43;12.77;;;6.13;;
6614;SDS011;3343;42.896;23.912;2023-04-10T09:22:11;10.07;;;5.90;;
6614;SDS011;3343;42.896;23.912;2023-04-10T09:24:39;8.33;;;5.70;;
6614;SDS011;3343;42.896;23.912;2023-04-10T09:27:09;9.70;;;5.77;;
6614;SDS011;3343;42.896;23.912;2023-04-10T09:29:41;8.67;;;5.43;;
6614;SDS011;3343;42.896;23.912;2023-04-10T09:32:09;8.93;;;5.47;;
6614;SDS011;3343;42.896;23.912;2023-04-10T09:34:50;8.67;;;5.20;;
6614;SDS011;3343;42.896;23.912;2023-04-10T09:37:19;10.97;;;5.50;;
6614;SDS011;3343;42.896;23.912;2023-04-10T09:39:47;7.20;;;5.27;;
6614;SDS011;3343;42.896;23.912;2023-04-10T09:42:15;9.83;;;5.40;;
6614;SDS011;3343;42.896;23.912;2023-04-10T09:44:54;7.37;;;4.57;;
6614;SDS011;3343;42.896;23.912;2023-04-10T09:47:21;9.00;;;5.50;;
6614;SDS011;3343;42.896;23.912;2023-04-10T09:49:48;7.73;;;4.97;;
6614;SDS011;3343;42.896;23.912;2023-04-10T09:52:17;8.00;;;4.80;;
6614;SDS011;3343;42.896;23.912;2023-04-10T09:54:44;9.47;;;5.23;;
6614;SDS011;3343;42.896;23.912;2023-04-10T09:57:12;8.57;;;5.23;;
6614;SDS011;3343;42.896;23.912;2023-04-10T09:59:43;9.47;;;5.83;;
6614;SDS011;3343;42.896;23.912;2023-04-10T10:02:15;9.13;;;5.37;;
6614;SDS011;3343;42.896;23.912;2023-04-10T10:04:43;9.03;;;5.33;;
6614;SDS011;3343;42.896;23.912;2023-04-10T10:07:12;9.50;;;5.60;;
6614;SDS011;3343;42.896;23.912;2023-04-10T10:09:40;13.20;;;6.40;;
6614;SDS011;3343;42.896;23.912;2023-04-10T10:12:08;7.90;;;4.67;;
6614;SDS011;3343;42.896;23.912;2023-04-10T10:14:38;15.57;;;6.47;;
6614;SDS011;3343;42.896;23.912;2023-04-10T10:17:11;7.90;;;5.17;;
6614;SDS011;3343;42.896;23.912;2023-04-10T10:19:44;9.57;;;5.57;;
6614;SDS011;3343;42.896;23.912;2023-04-10T10:22:19;6.17;;;4.53;;
6614;SDS011;3343;42.896;23.912;2023-04-10T10:24:48;8.93;;;5.50;;
6614;SDS011;3343;42.896;23.912;2023-04-10T10:27:20;9.83;;;5.10;;
6614;SDS011;3343;42.896;23.912;2023-04-10T10:29:49;7.03;;;4.37;;
6614;SDS011;3343;42.896;23.912;2023-04-10T10:32:20;7.10;;;4.73;;
6614;SDS011;3343;42.896;23.912;2023-04-10T10:34:49;6.37;;;4.53;;
6614;SDS011;3343;42.896;23.912;2023-04-10T10:37:18;7.43;;;4.53;;
6614;SDS011;3343;42.896;23.912;2023-04-10T10:39:48;9.60;;;5.40;;
6614;SDS011;3343;42.896;23.912;2023-04-10T10:42:21;7.97;;;4.93;;
6614;SDS011;3343;42.896;23.912;2023-04-10T10:44:54;6.93;;;4.53;;
6614;SDS011;3343;42.896;23.912;2023-04-10T10:47:28;7.67;;;4.90;;
6614;SDS011;3343;42.896;23.912;2023-04-10T10:49:58;8.60;;;5.60;;
6614;SDS011;3343;42.896;23.912;2023-04-10T10:52:35;8.73;;;6.00;;
6614;SDS011;3343;42.896;23.912;2023-04-10T10:57:57;7.10;;;4.10;;
6614;SDS011;3343;42.896;23.912;2023-04-10T11:00:26;6.27;;;4.73;;
6614;SDS011;3343;42.896;23.912;2023-04-10T11:03:29;6.50;;;4.20;;
6614;SDS011;3343;42.896;23.912;2023-04-10T11:05:56;9.17;;;4.77;;
6614;SDS011;3343;42.896;23.912;2023-04-10T11:08:43;8.47;;;5.30;;
6614;SDS011;3343;42.896;23.912;2023-04-10T11:11:17;6.07;;;3.77;;
6614;SDS011;3343;42.896;23.912;2023-04-10T11:16:42;8.77;;;5.07;;
6614;SDS011;3343;42.896;23.912;2023-04-10T11:19:12;8.57;;;5.90;;
6614;SDS011;3343;42.896;23.912;2023-04-10T11:24:51;10.13;;;5.83;;
6614;SDS011;3343;42.896;23.912;2023-04-10T11:27:36;10.87;;;5.57;;
6614;SDS011;3343;42.896;23.912;2023-04-10T11:30:27;11.37;;;6.77;;
6614;SDS011;3343;42.896;23.912;2023-04-10T11:32:56;7.80;;;4.93;;
6614;SDS011;3343;42.896;23.912;2023-04-10T11:35:25;10.50;;;5.33;;
6614;SDS011;3343;42.896;23.912;2023-04-10T11:40:35;7.73;;;5.43;;
6614;SDS011;3343;42.896;23.912;2023-04-10T11:43:12;9.77;;;5.63;;
6614;SDS011;3343;42.896;23.912;2023-04-10T11:45:39;8.13;;;4.90;;
6614;SDS011;3343;42.896;23.912;2023-04-10T11:48:06;8.27;;;4.83;;
6614;SDS011;3343;42.896;23.912;2023-04-10T11:50:35;9.33;;;5.53;;
6614;SDS011;3343;42.896;23.912;2023-04-10T11:53:02;8.37;;;5.13;;
6614;SDS011;3343;42.896;23.912;2023-04-10T11:55:43;12.87;;;5.63;;
6614;SDS011;3343;42.896;23.912;2023-04-10T11:58:20;8.80;;;4.63;;
6614;SDS011;3343;42.896;23.912;2023-04-10T12:00:54;8.27;;;4.67;;
6614;SDS011;3343;42.896;23.912;2023-04-10T12:03:34;8.07;;;5.33;;
6614;SDS011;3343;42.896;23.912;2023-04-10T12:06:04;9.53;;;5.90;;
6614;SDS011;3343;42.896;23.912;2023-04-10T12:08:35;8.53;;;5.47;;
6614;SDS011;3343;42.896;23.912;2023-04-10T12:11:03;7.70;;;5.23;;
6614;SDS011;3343;42.896;23.912;2023-04-10T12:13:30;9.23;;;5.27;;
6614;SDS011;3343;42.896;23.912;2023-04-10T12:15:58;8.70;;;5.23;;
6614;SDS011;3343;42.896;23.912;2023-04-10T12:18:26;8.50;;;5.87;;
6614;SDS011;3343;42.896;23.912;2023-04-10T12:20:54;7.50;;;5.33;;
6614;SDS011;3343;42.896;23.912;2023-04-10T12:23:23;8.77;;;5.17;;
6614;SDS011;3343;42.896;23.912;2023-04-10T12:25:52;9.73;;;5.33;;
6614;SDS011;3343;42.896;23.912;2023-04-10T12:28:20;12.40;;;6.07;;
6614;SDS011;3343;42.896;23.912;2023-04-10T12:30:47;8.67;;;5.60;;
6614;SDS011;3343;42.896;23.912;2023-04-10T12:33:19;6.97;;;4.90;;
6614;SDS011;3343;42.896;23.912;2023-04-10T12:35:47;8.43;;;5.20;;
6614;SDS011;3343;42.896;23.912;2023-04-10T12:38:14;7.50;;;5.03;;
6614;SDS011;3343;42.896;23.912;2023-04-10T12:40:58;8.27;;;5.63;;
6614;SDS011;3343;42.896;23.912;2023-04-10T12:43:31;10.40;;;6.43;;
6614;SDS011;3343;42.896;23.912;2023-04-10T12:45:59;6.33;;;4.53;;
6614;SDS011;3343;42.896;23.912;2023-04-10T12:48:27;8.63;;;4.77;;
6614;SDS011;3343;42.896;23.912;2023-04-10T12:50:55;7.80;;;4.97;;
6614;SDS011;3343;42.896;23.912;2023-04-10T12:53:22;8.10;;;5.17;;
6614;SDS011;3343;42.896;23.912;2023-04-10T12:55:57;8.17;;;5.17;;
6614;SDS011;3343;42.896;23.912;2023-04-10T12:58:25;10.17;;;6.30;;
6614;SDS011;3343;42.896;23.912;2023-04-10T13:00:57;6.77;;;4.10;;
6614;SDS011;3343;42.896;23.912;2023-04-10T13:03:25;6.40;;;4.10;;
6614;SDS011;3343;42.896;23.912;2023-04-10T13:05:52;26.73;;;12.83;;
6614;SDS011;3343;42.896;23.912;2023-04-10T13:08:19;10.23;;;5.43;;
6614;SDS011;3343;42.896;23.912;2023-04-10T13:10:46;7.33;;;4.30;;
6614;SDS011;3343;42.896;23.912;2023-04-10T13:13:15;6.63;;;4.30;;
6614;SDS011;3343;42.896;23.912;2023-04-10T13:15:43;5.83;;;3.97;;
6614;SDS011;3343;42.896;23.912;2023-04-10T13:18:10;18.90;;;8.10;;
6614;SDS011;3343;42.896;23.912;2023-04-10T13:20:37;10.50;;;5.37;;
6614;SDS011;3343;42.896;23.912;2023-04-10T13:23:05;4.57;;;3.20;;
6614;SDS011;3343;42.896;23.912;2023-04-10T13:25:35;5.37;;;3.43;;
6614;SDS011;3343;42.896;23.912;2023-04-10T13:28:05;5.20;;;3.67;;
6614;SDS011;3343;42.896;23.912;2023-04-10T13:30:37;6.53;;;4.37;;
6614;SDS011;3343;42.896;23.912;2023-04-10T13:33:04;5.83;;;3.70;;
6614;SDS011;3343;42.896;23.912;2023-04-10T13:35:31;5.53;;;4.00;;
6614;SDS011;3343;42.896;23.912;2023-04-10T13:37:58;6.77;;;4.13;;
6614;SDS011;3343;42.896;23.912;2023-04-10T13:40:26;5.13;;;4.10;;
6614;SDS011;3343;42.896;23.912;2023-04-10T13:42:53;5.33;;;4.17;;
6614;SDS011;3343;42.896;23.912;2023-04-10T13:45:20;11.23;;;5.63;;
6614;SDS011;3343;42.896;23.912;2023-04-10T13:47:48;8.70;;;5.23;;
6614;SDS011;3343;42.896;23.912;2023-04-10T13:50:15;6.87;;;4.37;;
6614;SDS011;3343;42.896;23.912;2023-04-10T13:52:42;12.90;;;6.40;;
6614;SDS011;3343;42.896;23.912;2023-04-10T13:55:09;7.07;;;4.17;;
6614;SDS011;3343;42.896;23.912;2023-04-10T13:57:36;7.57;;;4.53;;
6614;SDS011;3343;42.896;23.912;2023-04-10T14:00:04;6.40;;;3.90;;
6614;SDS011;3343;42.896;23.912;2023-04-10T14:02:32;8.60;;;4.90;;
6614;SDS011;3343;42.896;23.912;2023-04-10T14:05:01;8.37;;;5.50;;
6614;SDS011;3343;42.896;23.912;2023-04-10T14:07:28;10.33;;;5.07;;
6614;SDS011;3343;42.896;23.912;2023-04-10T14:09:55;6.83;;;4.40;;
6614;SDS011;3343;42.896;23.912;2023-04-10T14:12:22;8.30;;;4.63;;
6614;SDS011;3343;42.896;23.912;2023-04-10T14:14:48;6.70;;;4.50;;
6614;SDS011;3343;42.896;23.912;2023-04-10T14:17:15;8.13;;;5.10;;
6614;SDS011;3343;42.896;23.912;2023-04-10T14:19:42;9.43;;;4.90;;
6614;SDS011;3343;42.896;23.912;2023-04-10T14:22:12;7.50;;;4.73;;
6614;SDS011;3343;42.896;23.912;2023-04-10T14:24:39;9.33;;;5.57;;
6614;SDS011;3343;42.896;23.912;2023-04-10T14:27:05;6.67;;;4.63;;
6614;SDS011;3343;42.896;23.912;2023-04-10T14:29:32;6.87;;;4.30;;
6614;SDS011;3343;42.896;23.912;2023-04-10T14:31:59;6.70;;;4.13;;
6614;SDS011;3343;42.896;23.912;2023-04-10T14:34:27;8.27;;;4.60;;
6614;SDS011;3343;42.896;23.912;2023-04-10T14:36:54;7.77;;;4.33;;
6614;SDS011;3343;42.896;23.912;2023-04-10T14:39:23;6.93;;;4.77;;
6614;SDS011;3343;42.896;23.912;2023-04-10T14:41:50;5.57;;;4.17;;
6614;SDS011;3343;42.896;23.912;2023-04-10T14:44:17;5.97;;;4.23;;
6614;SDS011;3343;42.896;23.912;2023-04-10T14:46:43;8.83;;;5.80;;
6614;SDS011;3343;42.896;23.912;2023-04-10T14:49:11;20.07;;;10.00;;
6614;SDS011;3343;42.896;23.912;2023-04-10T14:51:39;5.17;;;3.87;;
6614;SDS011;3343;42.896;23.912;2023-04-10T14:54:08;6.07;;;4.07;;
6614;SDS011;3343;42.896;23.912;2023-04-10T14:56:36;6.67;;;3.93;;
6614;SDS011;3343;42.896;23.912;2023-04-10T14:59:03;7.67;;;4.10;;
6614;SDS011;3343;42.896;23.912;2023-04-10T15:01:31;7.33;;;3.50;;
6614;SDS011;3343;42.896;23.912;2023-04-10T15:03:58;9.53;;;4.70;;
6614;SDS011;3343;42.896;23.912;2023-04-10T15:06:25;7.73;;;5.07;;
6614;SDS011;3343;42.896;23.912;2023-04-10T15:08:53;15.47;;;6.20;;
6614;SDS011;3343;42.896;23.912;2023-04-10T15:11:20;9.57;;;4.40;;
6614;SDS011;3343;42.896;23.912;2023-04-10T15:13:49;9.40;;;5.33;;
6614;SDS011;3343;42.896;23.912;2023-04-10T15:16:16;6.67;;;4.47;;